AUA911F LOWW-UDYZ
Flight info
| Callsign | AUA911F |
|---|---|
| Flight time | 3h 10m |
| Altitude | 37000 |
| Route | ADAMA DCT VEDER DCT ALAMU DCT EPARI DCT BUDOP DCT UDROS UM859 KARDE UL851 TBN UP146 YAVUZ UN161 INDUR |
| Aircraft | A320/M-SDE3FGHIRWY/LB1 |
Departure
| Time | 2026-05-05 20:37 |
|---|---|
| Airport | Vienna International Airport (LOWW) |
Arrival
| Time | 2026-05-05 23:47 |
|---|---|
| Airport | Zvartnots International Airport (UDYZ) |
| Time | Latitude | Longitude | Altitude | Speed | Heading |
|---|---|---|---|---|---|
| 2026-05-05 20:10 | 48.11898 | 16.56768 | 610 ft | 0 kts | 206° |
| 2026-05-05 20:29 | 48.11902 | 16.56771 | 609 ft | 2 kts | 206° |
| 2026-05-05 20:29 | 48.11920 | 16.56783 | 613 ft | 3 kts | 202° |
| 2026-05-05 20:30 | 48.11939 | 16.56793 | 625 ft | 3 kts | 192° |
| 2026-05-05 20:30 | 48.11958 | 16.56797 | 621 ft | 3 kts | 163° |
| 2026-05-05 20:30 | 48.11970 | 16.56788 | 625 ft | 1 kts | 117° |
| 2026-05-05 20:30 | 48.11971 | 16.56785 | 625 ft | 2 kts | 116° |
| 2026-05-05 20:33 | 48.11968 | 16.56796 | 625 ft | 6 kts | 116° |
| 2026-05-05 20:33 | 48.11911 | 16.56966 | 617 ft | 23 kts | 116° |
| 2026-05-05 20:33 | 48.11856 | 16.57177 | 609 ft | 20 kts | 98° |
| 2026-05-05 20:33 | 48.11867 | 16.57314 | 616 ft | 5 kts | 357° |
| 2026-05-05 20:34 | 48.11939 | 16.57291 | 612 ft | 22 kts | 352° |
| 2026-05-05 20:34 | 48.12012 | 16.57463 | 609 ft | 21 kts | 85° |
| 2026-05-05 20:34 | 48.11998 | 16.57582 | 612 ft | 0 kts | 105° |
| 2026-05-05 20:36 | 48.11986 | 16.57645 | 612 ft | 16 kts | 105° |
| 2026-05-05 20:36 | 48.11958 | 16.57802 | 616 ft | 12 kts | 105° |
| 2026-05-05 20:36 | 48.11900 | 16.57851 | 613 ft | 8 kts | 163° |
| 2026-05-05 20:36 | 48.11897 | 16.57852 | 612 ft | 0 kts | 164° |
| 2026-05-05 20:37 | 48.11786 | 16.57899 | 613 ft | 49 kts | 164° |
| 2026-05-05 20:37 | 48.11477 | 16.58029 | 616 ft | 89 kts | 164° |
| 2026-05-05 20:37 | 48.10368 | 16.58503 | 628 ft | 154 kts | 163° |
| 2026-05-05 20:37 | 48.09364 | 16.58941 | 1234 ft | 147 kts | 165° |
| 2026-05-05 20:38 | 48.08431 | 16.59548 | 1871 ft | 150 kts | 145° |
| 2026-05-05 20:38 | 48.07873 | 16.60949 | 2346 ft | 172 kts | 110° |
| 2026-05-05 20:38 | 48.07638 | 16.62800 | 2588 ft | 194 kts | 108° |
| 2026-05-05 20:38 | 48.07388 | 16.64907 | 2818 ft | 217 kts | 105° |
| 2026-05-05 20:39 | 48.07109 | 16.67265 | 3074 ft | 243 kts | 105° |
| 2026-05-05 20:39 | 48.06799 | 16.69875 | 3436 ft | 266 kts | 104° |
| 2026-05-05 20:39 | 48.06469 | 16.72666 | 4093 ft | 276 kts | 104° |
| 2026-05-05 20:39 | 48.06132 | 16.75515 | 4925 ft | 279 kts | 104° |
| 2026-05-05 20:40 | 48.05792 | 16.78349 | 5790 ft | 280 kts | 104° |
| 2026-05-05 20:40 | 48.05444 | 16.81233 | 6603 ft | 283 kts | 104° |
| 2026-05-05 20:40 | 48.05089 | 16.84150 | 7368 ft | 286 kts | 104° |
| 2026-05-05 20:40 | 48.04724 | 16.87102 | 8140 ft | 290 kts | 104° |
| 2026-05-05 20:41 | 48.04352 | 16.90092 | 8907 ft | 294 kts | 104° |
| 2026-05-05 20:41 | 48.03973 | 16.93110 | 9689 ft | 297 kts | 104° |
| 2026-05-05 20:41 | 48.03585 | 16.96186 | 10290 ft | 306 kts | 104° |
| 2026-05-05 20:41 | 48.03171 | 16.99431 | 10480 ft | 330 kts | 104° |
| 2026-05-05 20:42 | 48.02733 | 17.02883 | 10859 ft | 343 kts | 103° |
| 2026-05-05 20:42 | 48.02289 | 17.06420 | 11500 ft | 349 kts | 103° |
| 2026-05-05 20:42 | 48.01842 | 17.09997 | 12193 ft | 352 kts | 103° |
| 2026-05-05 20:42 | 48.01396 | 17.13567 | 12881 ft | 355 kts | 103° |
| 2026-05-05 20:43 | 48.00938 | 17.17216 | 13569 ft | 359 kts | 103° |
| 2026-05-05 20:43 | 48.00470 | 17.20900 | 14171 ft | 362 kts | 103° |
| 2026-05-05 20:43 | 47.99999 | 17.24603 | 14756 ft | 365 kts | 103° |
| 2026-05-05 20:43 | 47.99516 | 17.28363 | 15356 ft | 369 kts | 103° |
| 2026-05-05 20:44 | 47.99026 | 17.32148 | 15942 ft | 372 kts | 103° |
| 2026-05-05 20:44 | 47.98400 | 17.35863 | 16502 ft | 373 kts | 110° |
| 2026-05-05 20:44 | 47.97592 | 17.39578 | 17091 ft | 377 kts | 110° |
| 2026-05-05 20:44 | 47.96779 | 17.43309 | 17649 ft | 380 kts | 110° |
| 2026-05-05 20:45 | 47.95114 | 17.50895 | 18699 ft | 387 kts | 110° |
| 2026-05-05 20:45 | 47.94280 | 17.54686 | 19203 ft | 390 kts | 110° |
| 2026-05-05 20:45 | 47.93428 | 17.58555 | 19706 ft | 393 kts | 111° |
| 2026-05-05 20:46 | 47.92565 | 17.62456 | 20226 ft | 396 kts | 110° |
| 2026-05-05 20:46 | 47.91711 | 17.66317 | 20712 ft | 399 kts | 110° |
| 2026-05-05 20:46 | 47.90838 | 17.70259 | 21212 ft | 402 kts | 110° |
| 2026-05-05 20:46 | 47.89957 | 17.74229 | 21710 ft | 404 kts | 110° |
| 2026-05-05 20:47 | 47.89068 | 17.78225 | 22211 ft | 407 kts | 110° |
| 2026-05-05 20:47 | 47.88174 | 17.82247 | 22696 ft | 410 kts | 110° |
| 2026-05-05 20:47 | 47.87272 | 17.86301 | 23165 ft | 413 kts | 110° |
| 2026-05-05 20:47 | 47.86358 | 17.90392 | 23601 ft | 416 kts | 110° |
| 2026-05-05 20:48 | 47.85439 | 17.94493 | 23985 ft | 418 kts | 110° |
| 2026-05-05 20:48 | 47.84479 | 17.98539 | 24357 ft | 420 kts | 115° |
| 2026-05-05 20:48 | 47.83259 | 18.02504 | 24728 ft | 421 kts | 117° |
| 2026-05-05 20:48 | 47.82021 | 18.06475 | 25094 ft | 424 kts | 117° |
| 2026-05-05 20:49 | 47.80786 | 18.10432 | 25446 ft | 426 kts | 117° |
| 2026-05-05 20:49 | 47.79526 | 18.14459 | 25797 ft | 428 kts | 117° |
| 2026-05-05 20:49 | 47.78262 | 18.18487 | 26144 ft | 430 kts | 117° |
| 2026-05-05 20:49 | 47.77000 | 18.22489 | 26488 ft | 432 kts | 117° |
| 2026-05-05 20:50 | 47.75720 | 18.26544 | 26828 ft | 434 kts | 117° |
| 2026-05-05 20:50 | 47.74855 | 18.29307 | 27046 ft | 436 kts | 115° |
| 2026-05-05 20:50 | 47.73614 | 18.35013 | 27479 ft | 441 kts | 103° |
| 2026-05-05 20:50 | 47.73190 | 18.39546 | 27791 ft | 444 kts | 97° |
| 2026-05-05 20:51 | 47.72855 | 18.44123 | 28111 ft | 447 kts | 97° |
| 2026-05-05 20:51 | 47.72627 | 18.47163 | 28317 ft | 448 kts | 97° |
| 2026-05-05 20:51 | 47.72275 | 18.51783 | 28628 ft | 450 kts | 97° |
| 2026-05-05 20:51 | 47.71918 | 18.56402 | 28920 ft | 452 kts | 97° |
| 2026-05-05 20:52 | 47.71438 | 18.62578 | 29316 ft | 455 kts | 97° |
| 2026-05-05 20:52 | 47.71192 | 18.65728 | 29509 ft | 456 kts | 97° |
| 2026-05-05 20:52 | 47.70825 | 18.70425 | 29790 ft | 458 kts | 97° |
| 2026-05-05 20:52 | 47.70458 | 18.75091 | 30050 ft | 459 kts | 97° |
| 2026-05-05 20:53 | 47.70086 | 18.79813 | 30268 ft | 461 kts | 97° |
| 2026-05-05 20:53 | 47.69705 | 18.84564 | 30497 ft | 463 kts | 97° |
| 2026-05-05 20:53 | 47.69320 | 18.89313 | 30724 ft | 464 kts | 97° |
| 2026-05-05 20:53 | 47.68873 | 18.94017 | 30962 ft | 464 kts | 103° |
| 2026-05-05 20:54 | 47.68006 | 18.98609 | 31284 ft | 461 kts | 111° |
| 2026-05-05 20:54 | 47.66688 | 19.02961 | 31588 ft | 459 kts | 120° |
| 2026-05-05 20:54 | 47.65141 | 19.07033 | 31885 ft | 458 kts | 121° |
| 2026-05-05 20:54 | 47.63572 | 19.11154 | 32180 ft | 457 kts | 120° |
| 2026-05-05 20:55 | 47.62006 | 19.15263 | 32485 ft | 456 kts | 120° |
| 2026-05-05 20:55 | 47.60446 | 19.19358 | 32778 ft | 456 kts | 120° |
| 2026-05-05 20:55 | 47.58889 | 19.23446 | 33073 ft | 455 kts | 120° |
| 2026-05-05 20:55 | 47.57327 | 19.27530 | 33369 ft | 454 kts | 121° |
| 2026-05-05 20:56 | 47.55783 | 19.31558 | 33662 ft | 453 kts | 120° |
| 2026-05-05 20:56 | 47.54227 | 19.35613 | 33946 ft | 453 kts | 120° |
| 2026-05-05 20:56 | 47.52663 | 19.39683 | 34188 ft | 452 kts | 120° |
| 2026-05-05 20:56 | 47.51124 | 19.43686 | 34420 ft | 452 kts | 121° |
| 2026-05-05 20:57 | 47.49568 | 19.47723 | 34641 ft | 452 kts | 121° |
| 2026-05-05 20:57 | 47.48011 | 19.51765 | 34849 ft | 451 kts | 121° |
| 2026-05-05 20:57 | 47.44902 | 19.59817 | 34950 ft | 452 kts | 121° |
| 2026-05-05 20:58 | 47.41783 | 19.67853 | 34948 ft | 451 kts | 121° |
| 2026-05-05 20:58 | 47.38646 | 19.75913 | 34950 ft | 452 kts | 121° |
| 2026-05-05 20:59 | 47.35513 | 19.83942 | 34945 ft | 452 kts | 121° |
| 2026-05-05 20:59 | 47.32366 | 19.91988 | 34944 ft | 452 kts | 121° |
| 2026-05-05 21:00 | 47.29243 | 19.99972 | 34947 ft | 452 kts | 121° |
| 2026-05-05 21:00 | 47.26084 | 20.08004 | 34945 ft | 452 kts | 121° |
| 2026-05-05 21:01 | 47.22937 | 20.15960 | 34945 ft | 452 kts | 121° |
| 2026-05-05 21:01 | 47.19765 | 20.23966 | 34949 ft | 452 kts | 121° |
| 2026-05-05 21:02 | 47.16599 | 20.31956 | 34948 ft | 452 kts | 121° |
| 2026-05-05 21:02 | 47.13411 | 20.39961 | 34945 ft | 452 kts | 121° |
| 2026-05-05 21:03 | 47.10232 | 20.47890 | 34943 ft | 453 kts | 121° |
| 2026-05-05 21:03 | 47.07035 | 20.55856 | 34940 ft | 453 kts | 121° |
| 2026-05-05 21:04 | 47.03838 | 20.63826 | 34944 ft | 453 kts | 121° |
| 2026-05-05 21:04 | 47.00655 | 20.71739 | 34939 ft | 453 kts | 121° |
| 2026-05-05 21:05 | 46.97445 | 20.79668 | 34937 ft | 453 kts | 121° |
| 2026-05-05 21:05 | 46.94219 | 20.87628 | 34941 ft | 453 kts | 121° |
| 2026-05-05 21:06 | 46.91011 | 20.95514 | 34939 ft | 453 kts | 121° |
| 2026-05-05 21:06 | 46.87782 | 21.03423 | 34941 ft | 453 kts | 121° |
| 2026-05-05 21:07 | 46.84547 | 21.11334 | 34941 ft | 453 kts | 121° |
| 2026-05-05 21:07 | 46.81305 | 21.19238 | 34939 ft | 453 kts | 121° |
| 2026-05-05 21:08 | 46.78077 | 21.27102 | 34946 ft | 458 kts | 121° |
| 2026-05-05 21:08 | 46.74758 | 21.35156 | 34948 ft | 467 kts | 121° |
| 2026-05-05 21:09 | 46.71375 | 21.43330 | 34949 ft | 473 kts | 121° |
| 2026-05-05 21:09 | 46.68001 | 21.51534 | 34944 ft | 469 kts | 120° |
| 2026-05-05 21:10 | 46.66422 | 21.55625 | 34947 ft | 458 kts | 119° |
| 2026-05-05 21:10 | 46.64921 | 21.59707 | 34949 ft | 454 kts | 118° |
| 2026-05-05 21:10 | 46.62002 | 21.67868 | 34955 ft | 453 kts | 118° |
| 2026-05-05 21:11 | 46.59082 | 21.75937 | 34960 ft | 452 kts | 118° |
| 2026-05-05 21:11 | 46.56097 | 21.83989 | 34966 ft | 451 kts | 118° |
| 2026-05-05 21:12 | 46.53107 | 21.91963 | 34970 ft | 451 kts | 118° |
| 2026-05-05 21:12 | 46.50111 | 21.99974 | 34976 ft | 451 kts | 118° |
| 2026-05-05 21:13 | 46.47110 | 22.07990 | 34981 ft | 451 kts | 118° |
| 2026-05-05 21:13 | 46.44105 | 22.15994 | 34985 ft | 451 kts | 118° |
| 2026-05-05 21:14 | 46.41110 | 22.23953 | 34990 ft | 451 kts | 119° |
| 2026-05-05 21:14 | 46.38087 | 22.31952 | 34992 ft | 452 kts | 119° |
| 2026-05-05 21:15 | 46.35081 | 22.39886 | 35004 ft | 452 kts | 119° |
| 2026-05-05 21:15 | 46.32052 | 22.47860 | 35008 ft | 452 kts | 119° |
| 2026-05-05 21:16 | 46.29010 | 22.55827 | 35008 ft | 452 kts | 119° |
| 2026-05-05 21:16 | 46.25967 | 22.63794 | 35013 ft | 453 kts | 119° |
| 2026-05-05 21:17 | 46.22914 | 22.71758 | 35019 ft | 453 kts | 119° |
| 2026-05-05 21:17 | 46.19866 | 22.79687 | 35017 ft | 453 kts | 118° |
| 2026-05-05 21:18 | 46.16797 | 22.87653 | 35021 ft | 453 kts | 119° |
| 2026-05-05 21:18 | 46.13719 | 22.95596 | 35024 ft | 453 kts | 118° |
| 2026-05-05 21:19 | 46.10651 | 23.03505 | 35027 ft | 453 kts | 118° |
| 2026-05-05 21:19 | 46.07565 | 23.11437 | 35026 ft | 453 kts | 118° |
| 2026-05-05 21:20 | 46.04475 | 23.19360 | 35019 ft | 453 kts | 118° |
| 2026-05-05 21:20 | 46.01381 | 23.27291 | 35022 ft | 453 kts | 118° |
| 2026-05-05 21:21 | 45.98299 | 23.35153 | 35025 ft | 454 kts | 118° |
| 2026-05-05 21:21 | 45.95181 | 23.43045 | 35022 ft | 454 kts | 118° |
| 2026-05-05 21:22 | 45.92060 | 23.50940 | 35029 ft | 454 kts | 118° |
| 2026-05-05 21:22 | 45.88949 | 23.58830 | 35030 ft | 454 kts | 118° |
| 2026-05-05 21:23 | 45.85834 | 23.66691 | 35024 ft | 455 kts | 118° |
| 2026-05-05 21:23 | 45.82687 | 23.74585 | 35021 ft | 455 kts | 118° |
| 2026-05-05 21:24 | 45.79535 | 23.82474 | 35014 ft | 455 kts | 118° |
| 2026-05-05 21:24 | 45.76377 | 23.90369 | 35006 ft | 456 kts | 118° |
| 2026-05-05 21:25 | 45.73232 | 23.98202 | 35002 ft | 456 kts | 118° |
| 2026-05-05 21:25 | 45.70060 | 24.06078 | 35002 ft | 456 kts | 118° |
| 2026-05-05 21:26 | 45.66878 | 24.13958 | 35007 ft | 456 kts | 118° |
| 2026-05-05 21:26 | 45.63718 | 24.21774 | 35016 ft | 457 kts | 118° |
| 2026-05-05 21:27 | 45.60534 | 24.29620 | 35024 ft | 457 kts | 118° |
| 2026-05-05 21:27 | 45.57336 | 24.37469 | 35032 ft | 457 kts | 118° |
| 2026-05-05 21:28 | 45.54134 | 24.45298 | 35044 ft | 457 kts | 118° |
| 2026-05-05 21:28 | 45.50926 | 24.53135 | 35050 ft | 457 kts | 118° |
| 2026-05-05 21:29 | 45.47726 | 24.60920 | 35055 ft | 457 kts | 118° |
| 2026-05-05 21:29 | 45.44518 | 24.68723 | 35059 ft | 456 kts | 118° |
| 2026-05-05 21:30 | 45.41297 | 24.76523 | 35060 ft | 456 kts | 118° |
| 2026-05-05 21:30 | 45.38100 | 24.84248 | 35065 ft | 455 kts | 118° |
| 2026-05-05 21:31 | 45.34877 | 24.92014 | 35064 ft | 455 kts | 118° |
| 2026-05-05 21:31 | 45.31650 | 24.99763 | 35066 ft | 455 kts | 118° |
| 2026-05-05 21:32 | 45.28436 | 25.07462 | 35066 ft | 455 kts | 118° |
| 2026-05-05 21:32 | 45.25209 | 25.15164 | 35064 ft | 454 kts | 118° |
| 2026-05-05 21:33 | 45.21970 | 25.22883 | 35068 ft | 454 kts | 118° |
| 2026-05-05 21:33 | 45.18732 | 25.30592 | 35063 ft | 454 kts | 118° |
| 2026-05-05 21:34 | 45.15502 | 25.38225 | 35060 ft | 454 kts | 118° |
| 2026-05-05 21:34 | 45.12255 | 25.45899 | 35057 ft | 454 kts | 118° |
| 2026-05-05 21:35 | 45.09003 | 25.53570 | 35057 ft | 454 kts | 118° |
| 2026-05-05 21:35 | 45.05745 | 25.61233 | 35055 ft | 454 kts | 118° |
| 2026-05-05 21:36 | 45.02479 | 25.68881 | 35058 ft | 454 kts | 118° |
| 2026-05-05 21:36 | 44.99216 | 25.76491 | 35049 ft | 454 kts | 118° |
| 2026-05-05 21:37 | 44.96490 | 25.82839 | 35047 ft | 454 kts | 118° |
| 2026-05-05 21:37 | 44.92678 | 25.91722 | 35044 ft | 454 kts | 118° |
| 2026-05-05 21:38 | 44.90090 | 25.97718 | 35039 ft | 454 kts | 118° |
| 2026-05-05 21:38 | 44.86971 | 26.04929 | 35034 ft | 454 kts | 118° |
| 2026-05-05 21:39 | 44.83684 | 26.12530 | 35036 ft | 454 kts | 119° |
| 2026-05-05 21:39 | 44.80384 | 26.20115 | 35038 ft | 454 kts | 119° |
| 2026-05-05 21:40 | 44.77077 | 26.27688 | 35030 ft | 454 kts | 119° |
| 2026-05-05 21:40 | 44.73772 | 26.35257 | 35038 ft | 454 kts | 119° |
| 2026-05-05 21:41 | 44.70492 | 26.42775 | 35029 ft | 454 kts | 119° |
| 2026-05-05 21:41 | 44.67176 | 26.50333 | 35037 ft | 454 kts | 119° |
| 2026-05-05 21:42 | 44.63845 | 26.57885 | 35038 ft | 454 kts | 119° |
| 2026-05-05 21:42 | 44.60536 | 26.65367 | 35041 ft | 453 kts | 120° |
| 2026-05-05 21:43 | 44.57199 | 26.72888 | 35040 ft | 453 kts | 120° |
| 2026-05-05 21:43 | 44.53867 | 26.80395 | 35044 ft | 453 kts | 120° |
| 2026-05-05 21:44 | 44.50540 | 26.87890 | 35044 ft | 452 kts | 120° |
| 2026-05-05 21:44 | 44.47233 | 26.95324 | 35043 ft | 452 kts | 120° |
| 2026-05-05 21:45 | 44.43890 | 27.02799 | 35046 ft | 452 kts | 120° |
| 2026-05-05 21:45 | 44.40544 | 27.10250 | 35047 ft | 451 kts | 120° |
| 2026-05-05 21:46 | 44.37222 | 27.17635 | 35048 ft | 451 kts | 120° |
| 2026-05-05 21:46 | 44.33869 | 27.25067 | 35047 ft | 451 kts | 121° |
| 2026-05-05 21:47 | 44.30534 | 27.32443 | 35052 ft | 450 kts | 121° |
| 2026-05-05 21:47 | 44.27190 | 27.39845 | 35052 ft | 450 kts | 121° |
| 2026-05-05 21:48 | 44.23834 | 27.47242 | 35055 ft | 450 kts | 121° |
| 2026-05-05 21:48 | 44.20492 | 27.54579 | 35056 ft | 450 kts | 121° |
| 2026-05-05 21:49 | 44.17134 | 27.61938 | 35061 ft | 449 kts | 121° |
| 2026-05-05 21:49 | 44.13775 | 27.69270 | 35062 ft | 448 kts | 121° |
| 2026-05-05 21:50 | 44.10435 | 27.76549 | 35068 ft | 448 kts | 121° |
| 2026-05-05 21:50 | 44.07065 | 27.83868 | 35069 ft | 447 kts | 122° |
| 2026-05-05 21:51 | 44.03707 | 27.91146 | 35073 ft | 447 kts | 122° |
| 2026-05-05 21:51 | 44.00365 | 27.98382 | 35071 ft | 447 kts | 122° |
| 2026-05-05 21:52 | 43.95312 | 28.09284 | 35080 ft | 447 kts | 122° |
| 2026-05-05 21:53 | 43.91949 | 28.16500 | 35078 ft | 447 kts | 122° |
| 2026-05-05 21:53 | 43.88568 | 28.23748 | 35077 ft | 447 kts | 122° |
| 2026-05-05 21:54 | 43.85202 | 28.30951 | 35076 ft | 447 kts | 122° |
| 2026-05-05 21:54 | 43.81806 | 28.38198 | 35077 ft | 447 kts | 122° |
| 2026-05-05 21:55 | 43.78415 | 28.45427 | 35075 ft | 448 kts | 122° |
| 2026-05-05 21:55 | 43.75008 | 28.52658 | 35080 ft | 448 kts | 122° |
| 2026-05-05 21:56 | 43.71589 | 28.59886 | 35081 ft | 448 kts | 122° |
| 2026-05-05 21:56 | 43.68184 | 28.67062 | 35087 ft | 449 kts | 122° |
| 2026-05-05 21:57 | 43.64758 | 28.74293 | 35084 ft | 449 kts | 121° |
| 2026-05-05 21:57 | 43.61341 | 28.81485 | 35087 ft | 449 kts | 122° |
| 2026-05-05 21:58 | 43.57887 | 28.88717 | 35090 ft | 450 kts | 121° |
| 2026-05-05 21:58 | 43.54464 | 28.95880 | 35081 ft | 450 kts | 121° |
| 2026-05-05 21:59 | 43.51015 | 29.03084 | 35083 ft | 451 kts | 121° |
| 2026-05-05 21:59 | 43.47544 | 29.10304 | 35082 ft | 451 kts | 121° |
| 2026-05-05 22:00 | 43.44084 | 29.17475 | 35085 ft | 452 kts | 121° |
| 2026-05-05 22:00 | 43.40604 | 29.24686 | 35079 ft | 452 kts | 121° |
| 2026-05-05 22:01 | 43.37127 | 29.31890 | 35080 ft | 453 kts | 121° |
| 2026-05-05 22:01 | 43.33618 | 29.39117 | 35081 ft | 453 kts | 121° |
| 2026-05-05 22:02 | 43.30118 | 29.46306 | 35082 ft | 453 kts | 121° |
| 2026-05-05 22:02 | 43.26634 | 29.53459 | 35076 ft | 453 kts | 121° |
| 2026-05-05 22:03 | 43.23114 | 29.60664 | 35082 ft | 453 kts | 121° |
| 2026-05-05 22:03 | 43.19593 | 29.67850 | 35087 ft | 454 kts | 121° |
| 2026-05-05 22:04 | 43.16099 | 29.74988 | 35081 ft | 453 kts | 121° |
| 2026-05-05 22:04 | 43.12570 | 29.82151 | 35078 ft | 453 kts | 121° |
| 2026-05-05 22:05 | 43.09033 | 29.89301 | 35080 ft | 453 kts | 121° |
| 2026-05-05 22:05 | 43.05525 | 29.96393 | 35079 ft | 452 kts | 121° |
| 2026-05-05 22:06 | 43.01995 | 30.03526 | 35082 ft | 452 kts | 121° |
| 2026-05-05 22:06 | 42.98471 | 30.10622 | 35072 ft | 452 kts | 121° |
| 2026-05-05 22:07 | 42.94922 | 30.17739 | 35085 ft | 452 kts | 121° |
| 2026-05-05 22:07 | 42.91398 | 30.24780 | 35073 ft | 452 kts | 120° |
| 2026-05-05 22:08 | 42.87851 | 30.31878 | 35076 ft | 452 kts | 120° |
| 2026-05-05 22:08 | 42.84304 | 30.38959 | 35075 ft | 452 kts | 120° |
| 2026-05-05 22:09 | 42.80758 | 30.46007 | 35074 ft | 452 kts | 120° |
| 2026-05-05 22:09 | 42.77186 | 30.53077 | 35070 ft | 452 kts | 120° |
| 2026-05-05 22:10 | 42.74234 | 30.60549 | 35074 ft | 443 kts | 104° |
| 2026-05-05 22:10 | 42.72994 | 30.68632 | 35071 ft | 436 kts | 93° |
| 2026-05-05 22:11 | 42.72175 | 30.76833 | 35074 ft | 437 kts | 94° |
| 2026-05-05 22:11 | 42.71336 | 30.84973 | 35073 ft | 436 kts | 94° |
| 2026-05-05 22:12 | 42.70487 | 30.93146 | 35072 ft | 436 kts | 94° |
| 2026-05-05 22:12 | 42.69637 | 31.01298 | 35069 ft | 437 kts | 94° |
| 2026-05-05 22:13 | 42.68789 | 31.09495 | 35067 ft | 437 kts | 94° |
| 2026-05-05 22:13 | 42.67936 | 31.17628 | 35069 ft | 437 kts | 94° |
| 2026-05-05 22:14 | 42.67072 | 31.25807 | 35065 ft | 437 kts | 94° |
| 2026-05-05 22:14 | 42.66202 | 31.33952 | 35065 ft | 437 kts | 94° |
| 2026-05-05 22:15 | 42.65327 | 31.42130 | 35066 ft | 437 kts | 94° |
| 2026-05-05 22:15 | 42.64439 | 31.50327 | 35066 ft | 437 kts | 94° |
| 2026-05-05 22:16 | 42.63550 | 31.58485 | 35066 ft | 437 kts | 94° |
| 2026-05-05 22:16 | 42.62663 | 31.66611 | 35065 ft | 437 kts | 94° |
| 2026-05-05 22:17 | 42.61762 | 31.74794 | 35067 ft | 437 kts | 94° |
| 2026-05-05 22:17 | 42.60860 | 31.82901 | 35067 ft | 437 kts | 94° |
| 2026-05-05 22:18 | 42.59947 | 31.91077 | 35069 ft | 436 kts | 94° |
| 2026-05-05 22:18 | 42.59027 | 31.99227 | 35064 ft | 436 kts | 94° |
| 2026-05-05 22:19 | 42.58124 | 32.07320 | 35064 ft | 436 kts | 94° |
| 2026-05-05 22:19 | 42.57212 | 32.15443 | 35068 ft | 436 kts | 94° |
| 2026-05-05 22:20 | 42.56278 | 32.23575 | 35065 ft | 435 kts | 94° |
| 2026-05-05 22:20 | 42.55346 | 32.31648 | 35065 ft | 435 kts | 94° |
| 2026-05-05 22:21 | 42.54401 | 32.39774 | 35066 ft | 435 kts | 94° |
| 2026-05-05 22:21 | 42.53457 | 32.47869 | 35063 ft | 435 kts | 94° |
| 2026-05-05 22:22 | 42.52508 | 32.55973 | 35067 ft | 435 kts | 95° |
| 2026-05-05 22:22 | 42.51544 | 32.64076 | 35067 ft | 435 kts | 95° |
| 2026-05-05 22:23 | 42.50574 | 32.72157 | 35061 ft | 435 kts | 95° |
| 2026-05-05 22:23 | 42.49614 | 32.80195 | 35061 ft | 435 kts | 95° |
| 2026-05-05 22:24 | 42.48646 | 32.88301 | 35062 ft | 435 kts | 95° |
| 2026-05-05 22:24 | 42.47668 | 32.96414 | 35063 ft | 435 kts | 95° |
| 2026-05-05 22:25 | 42.46681 | 33.04461 | 35061 ft | 436 kts | 95° |
| 2026-05-05 22:25 | 42.45683 | 33.12569 | 35064 ft | 436 kts | 95° |
| 2026-05-05 22:26 | 42.44857 | 33.19319 | 35059 ft | 436 kts | 95° |
| 2026-05-05 22:26 | 42.43688 | 33.28743 | 35070 ft | 436 kts | 95° |
| 2026-05-05 22:27 | 42.42839 | 33.35476 | 35068 ft | 436 kts | 95° |
| 2026-05-05 22:27 | 42.41816 | 33.43566 | 35063 ft | 436 kts | 95° |
| 2026-05-05 22:28 | 42.40795 | 33.51657 | 35068 ft | 435 kts | 96° |
| 2026-05-05 22:28 | 42.39770 | 33.59741 | 35060 ft | 435 kts | 96° |
| 2026-05-05 22:29 | 42.38739 | 33.67815 | 35073 ft | 435 kts | 96° |
| 2026-05-05 22:29 | 42.37712 | 33.75836 | 35065 ft | 435 kts | 96° |
| 2026-05-05 22:30 | 42.36665 | 33.83909 | 35070 ft | 435 kts | 96° |
| 2026-05-05 22:30 | 42.35611 | 33.91965 | 35068 ft | 435 kts | 96° |
| 2026-05-05 22:31 | 42.34569 | 34.00029 | 35065 ft | 435 kts | 96° |
| 2026-05-05 22:31 | 42.33518 | 34.08045 | 35068 ft | 435 kts | 97° |
| 2026-05-05 22:32 | 42.32452 | 34.16108 | 35066 ft | 435 kts | 97° |
| 2026-05-05 22:32 | 42.31384 | 34.24168 | 35070 ft | 435 kts | 97° |
| 2026-05-05 22:33 | 42.30311 | 34.32225 | 35069 ft | 435 kts | 97° |
| 2026-05-05 22:33 | 42.29240 | 34.40255 | 35068 ft | 436 kts | 97° |
| 2026-05-05 22:34 | 42.28159 | 34.48271 | 35066 ft | 436 kts | 97° |
| 2026-05-05 22:34 | 42.27063 | 34.56333 | 35066 ft | 436 kts | 98° |
| 2026-05-05 22:35 | 42.25963 | 34.64397 | 35067 ft | 436 kts | 98° |
| 2026-05-05 22:35 | 42.24860 | 34.72421 | 35068 ft | 437 kts | 98° |
| 2026-05-05 22:36 | 42.23737 | 34.80510 | 35066 ft | 437 kts | 98° |
| 2026-05-05 22:36 | 42.22618 | 34.88585 | 35070 ft | 437 kts | 98° |
| 2026-05-05 22:37 | 42.21489 | 34.96653 | 35068 ft | 437 kts | 98° |
| 2026-05-05 22:37 | 42.20362 | 35.04662 | 35065 ft | 438 kts | 99° |
| 2026-05-05 22:38 | 42.19225 | 35.12742 | 35067 ft | 438 kts | 99° |
| 2026-05-05 22:38 | 42.18082 | 35.20794 | 35068 ft | 438 kts | 99° |
| 2026-05-05 22:39 | 42.16924 | 35.28883 | 35068 ft | 438 kts | 99° |
| 2026-05-05 22:39 | 42.15763 | 35.36969 | 35071 ft | 439 kts | 99° |
| 2026-05-05 22:40 | 42.14606 | 35.45004 | 35069 ft | 439 kts | 99° |
| 2026-05-05 22:40 | 42.13433 | 35.53096 | 35069 ft | 439 kts | 99° |
| 2026-05-05 22:41 | 42.12255 | 35.61187 | 35068 ft | 439 kts | 100° |
| 2026-05-05 22:41 | 42.11082 | 35.69240 | 35068 ft | 439 kts | 100° |
| 2026-05-05 22:42 | 42.09888 | 35.77343 | 35352 ft | 440 kts | 100° |
| 2026-05-05 22:42 | 42.09293 | 35.81337 | 35578 ft | 440 kts | 101° |
| 2026-05-05 22:42 | 42.08687 | 35.85398 | 35794 ft | 440 kts | 101° |
| 2026-05-05 22:42 | 42.08085 | 35.89447 | 36004 ft | 440 kts | 101° |
| 2026-05-05 22:43 | 42.07484 | 35.93502 | 36203 ft | 441 kts | 101° |
| 2026-05-05 22:43 | 42.06892 | 35.97501 | 36392 ft | 441 kts | 101° |
| 2026-05-05 22:43 | 42.06288 | 36.01565 | 36594 ft | 441 kts | 101° |
| 2026-05-05 22:43 | 42.05684 | 36.05612 | 36785 ft | 441 kts | 101° |
| 2026-05-05 22:44 | 42.05081 | 36.09650 | 36972 ft | 441 kts | 101° |
| 2026-05-05 22:44 | 42.03859 | 36.17763 | 37069 ft | 440 kts | 101° |
| 2026-05-05 22:45 | 42.02637 | 36.25811 | 37068 ft | 439 kts | 101° |
| 2026-05-05 22:45 | 42.01421 | 36.33801 | 37067 ft | 439 kts | 101° |
| 2026-05-05 22:46 | 42.00185 | 36.41868 | 37061 ft | 439 kts | 102° |
| 2026-05-05 22:46 | 41.98954 | 36.49883 | 37064 ft | 439 kts | 102° |
| 2026-05-05 22:47 | 41.97705 | 36.57941 | 37066 ft | 440 kts | 102° |
| 2026-05-05 22:47 | 41.96455 | 36.65999 | 37065 ft | 439 kts | 102° |
| 2026-05-05 22:48 | 41.95209 | 36.74017 | 37070 ft | 440 kts | 102° |
| 2026-05-05 22:48 | 41.93948 | 36.82062 | 37068 ft | 440 kts | 102° |
| 2026-05-05 22:49 | 41.92681 | 36.90083 | 37069 ft | 440 kts | 102° |
| 2026-05-05 22:49 | 41.91407 | 36.98161 | 37073 ft | 440 kts | 102° |
| 2026-05-05 22:50 | 41.89894 | 37.06113 | 37067 ft | 439 kts | 112° |
| 2026-05-05 22:50 | 41.87534 | 37.13611 | 37063 ft | 439 kts | 113° |
| 2026-05-05 22:51 | 41.85158 | 37.21184 | 37065 ft | 439 kts | 113° |
| 2026-05-05 22:51 | 41.82771 | 37.28766 | 37067 ft | 440 kts | 114° |
| 2026-05-05 22:52 | 41.80384 | 37.36288 | 37068 ft | 440 kts | 114° |
| 2026-05-05 22:52 | 41.77981 | 37.43822 | 37069 ft | 440 kts | 114° |
| 2026-05-05 22:53 | 41.75584 | 37.51377 | 37069 ft | 440 kts | 114° |
| 2026-05-05 22:53 | 41.73185 | 37.58928 | 37067 ft | 440 kts | 114° |
| 2026-05-05 22:54 | 41.70789 | 37.66413 | 37067 ft | 440 kts | 114° |
| 2026-05-05 22:54 | 41.68367 | 37.73955 | 37069 ft | 440 kts | 114° |
| 2026-05-05 22:55 | 41.65960 | 37.81435 | 37063 ft | 440 kts | 114° |
| 2026-05-05 22:55 | 41.63540 | 37.88960 | 37066 ft | 440 kts | 114° |
| 2026-05-05 22:56 | 41.61105 | 37.96499 | 37062 ft | 440 kts | 115° |
| 2026-05-05 22:56 | 41.58681 | 38.03971 | 37060 ft | 441 kts | 115° |
| 2026-05-05 22:57 | 41.56237 | 38.11494 | 37058 ft | 441 kts | 115° |
| 2026-05-05 22:57 | 41.53787 | 38.19017 | 37060 ft | 441 kts | 115° |
| 2026-05-05 22:58 | 41.51345 | 38.26488 | 37058 ft | 441 kts | 115° |
| 2026-05-05 22:58 | 41.48882 | 38.34015 | 37054 ft | 442 kts | 115° |
| 2026-05-05 22:59 | 41.46417 | 38.41537 | 37051 ft | 442 kts | 115° |
| 2026-05-05 22:59 | 41.43936 | 38.49064 | 37053 ft | 443 kts | 115° |
| 2026-05-05 23:00 | 41.40215 | 38.60292 | 37052 ft | 443 kts | 115° |
| 2026-05-05 23:00 | 41.37721 | 38.67808 | 37052 ft | 443 kts | 115° |
| 2026-05-05 23:01 | 41.35223 | 38.75317 | 37051 ft | 444 kts | 115° |
| 2026-05-05 23:01 | 41.32738 | 38.82797 | 37056 ft | 444 kts | 115° |
| 2026-05-05 23:02 | 41.30274 | 38.90348 | 37057 ft | 444 kts | 115° |
| 2026-05-05 23:02 | 41.27830 | 38.97844 | 37053 ft | 444 kts | 115° |
| 2026-05-05 23:03 | 41.25355 | 39.05398 | 37050 ft | 444 kts | 115° |
| 2026-05-05 23:03 | 41.22869 | 39.12929 | 37058 ft | 445 kts | 116° |
| 2026-05-05 23:04 | 41.20363 | 39.20440 | 37057 ft | 444 kts | 116° |
| 2026-05-05 23:04 | 41.17785 | 39.27857 | 37051 ft | 444 kts | 117° |
| 2026-05-05 23:05 | 41.15153 | 39.35292 | 37050 ft | 445 kts | 117° |
| 2026-05-05 23:05 | 41.12530 | 39.42701 | 37044 ft | 445 kts | 117° |
| 2026-05-05 23:06 | 41.09911 | 39.50164 | 37043 ft | 445 kts | 117° |
| 2026-05-05 23:06 | 41.07302 | 39.57614 | 37044 ft | 445 kts | 117° |
| 2026-05-05 23:07 | 41.04688 | 39.65000 | 37043 ft | 445 kts | 118° |
| 2026-05-05 23:07 | 41.02048 | 39.72445 | 37043 ft | 445 kts | 118° |
| 2026-05-05 23:08 | 40.99424 | 39.79839 | 37043 ft | 445 kts | 118° |
| 2026-05-05 23:08 | 40.96832 | 39.87308 | 37043 ft | 446 kts | 117° |
| 2026-05-05 23:09 | 40.94282 | 39.94743 | 37042 ft | 446 kts | 117° |
| 2026-05-05 23:09 | 40.91701 | 40.02202 | 37043 ft | 446 kts | 117° |
| 2026-05-05 23:10 | 40.89105 | 40.09658 | 37045 ft | 446 kts | 117° |
| 2026-05-05 23:10 | 40.86508 | 40.17127 | 37044 ft | 447 kts | 117° |
| 2026-05-05 23:11 | 40.84342 | 40.23337 | 37043 ft | 447 kts | 118° |
| 2026-05-05 23:11 | 40.81299 | 40.32006 | 37038 ft | 447 kts | 118° |
| 2026-05-05 23:12 | 40.79119 | 40.38203 | 37036 ft | 447 kts | 118° |
| 2026-05-05 23:12 | 40.76075 | 40.46873 | 37028 ft | 447 kts | 118° |
| 2026-05-05 23:13 | 40.73898 | 40.53062 | 37021 ft | 447 kts | 118° |
| 2026-05-05 23:13 | 40.71258 | 40.60517 | 37012 ft | 447 kts | 118° |
| 2026-05-05 23:14 | 40.68615 | 40.67967 | 37008 ft | 448 kts | 118° |
| 2026-05-05 23:14 | 40.65991 | 40.75349 | 36992 ft | 448 kts | 118° |
| 2026-05-05 23:15 | 40.63346 | 40.82777 | 36992 ft | 448 kts | 118° |
| 2026-05-05 23:15 | 40.60699 | 40.90198 | 36980 ft | 448 kts | 118° |
| 2026-05-05 23:16 | 40.58031 | 40.97639 | 36976 ft | 448 kts | 119° |
| 2026-05-05 23:16 | 40.55375 | 41.05021 | 36970 ft | 448 kts | 119° |
| 2026-05-05 23:17 | 40.52701 | 41.12440 | 36973 ft | 448 kts | 119° |
| 2026-05-05 23:17 | 40.50046 | 41.19802 | 36973 ft | 448 kts | 119° |
| 2026-05-05 23:18 | 40.47366 | 41.27222 | 36975 ft | 448 kts | 119° |
| 2026-05-05 23:18 | 40.44706 | 41.34591 | 36977 ft | 448 kts | 119° |
| 2026-05-05 23:19 | 40.42014 | 41.41998 | 36972 ft | 447 kts | 120° |
| 2026-05-05 23:19 | 40.39332 | 41.49348 | 36977 ft | 448 kts | 120° |
| 2026-05-05 23:20 | 40.36629 | 41.56728 | 36976 ft | 448 kts | 120° |
| 2026-05-05 23:20 | 40.33929 | 41.64061 | 36971 ft | 448 kts | 120° |
| 2026-05-05 23:21 | 40.31221 | 41.71436 | 36969 ft | 448 kts | 120° |
| 2026-05-05 23:21 | 40.28507 | 41.78807 | 36974 ft | 448 kts | 120° |
| 2026-05-05 23:22 | 40.25808 | 41.86119 | 36964 ft | 448 kts | 120° |
| 2026-05-05 23:22 | 40.23080 | 41.93477 | 36960 ft | 449 kts | 120° |
| 2026-05-05 23:23 | 40.20339 | 42.00844 | 36957 ft | 449 kts | 120° |
| 2026-05-05 23:23 | 40.17605 | 42.08178 | 36940 ft | 450 kts | 120° |
| 2026-05-05 23:24 | 40.14851 | 42.15577 | 36776 ft | 453 kts | 120° |
| 2026-05-05 23:24 | 40.13450 | 42.19332 | 35635 ft | 464 kts | 121° |
| 2026-05-05 23:24 | 40.12045 | 42.23089 | 34856 ft | 466 kts | 121° |
| 2026-05-05 23:25 | 40.10622 | 42.26890 | 34254 ft | 463 kts | 121° |
| 2026-05-05 23:25 | 40.09216 | 42.30645 | 33421 ft | 455 kts | 121° |
| 2026-05-05 23:25 | 40.07829 | 42.34333 | 32443 ft | 447 kts | 121° |
| 2026-05-05 23:25 | 40.06486 | 42.37901 | 31543 ft | 439 kts | 121° |
| 2026-05-05 23:26 | 40.05343 | 42.41581 | 30774 ft | 436 kts | 109° |
| 2026-05-05 23:26 | 40.04792 | 42.45486 | 30301 ft | 438 kts | 98° |
| 2026-05-05 23:26 | 40.04829 | 42.49471 | 29728 ft | 439 kts | 89° |
| 2026-05-05 23:26 | 40.05073 | 42.53428 | 29229 ft | 433 kts | 89° |
| 2026-05-05 23:27 | 40.05314 | 42.57284 | 28744 ft | 428 kts | 89° |
| 2026-05-05 23:27 | 40.05553 | 42.61148 | 28272 ft | 422 kts | 89° |
| 2026-05-05 23:27 | 40.05785 | 42.64950 | 27800 ft | 418 kts | 89° |
| 2026-05-05 23:27 | 40.06015 | 42.68718 | 27319 ft | 414 kts | 89° |
| 2026-05-05 23:28 | 40.06238 | 42.72406 | 26851 ft | 409 kts | 89° |
| 2026-05-05 23:28 | 40.06463 | 42.76114 | 26356 ft | 406 kts | 89° |
| 2026-05-05 23:28 | 40.06682 | 42.79779 | 25874 ft | 404 kts | 89° |
| 2026-05-05 23:28 | 40.06900 | 42.83434 | 25360 ft | 402 kts | 89° |
| 2026-05-05 23:29 | 40.07109 | 42.87033 | 24861 ft | 401 kts | 89° |
| 2026-05-05 23:29 | 40.07318 | 42.90647 | 24455 ft | 396 kts | 89° |
| 2026-05-05 23:29 | 40.07528 | 42.94240 | 23957 ft | 394 kts | 89° |
| 2026-05-05 23:29 | 40.07741 | 42.97790 | 23563 ft | 390 kts | 89° |
| 2026-05-05 23:30 | 40.07951 | 43.01308 | 23039 ft | 387 kts | 89° |
| 2026-05-05 23:30 | 40.08155 | 43.04770 | 22545 ft | 384 kts | 89° |
| 2026-05-05 23:30 | 40.08356 | 43.08242 | 22033 ft | 381 kts | 89° |
| 2026-05-05 23:30 | 40.08552 | 43.11687 | 21562 ft | 378 kts | 89° |
| 2026-05-05 23:31 | 40.08747 | 43.15110 | 21087 ft | 375 kts | 89° |
| 2026-05-05 23:31 | 40.08940 | 43.18490 | 20706 ft | 370 kts | 88° |
| 2026-05-05 23:31 | 40.09127 | 43.21782 | 20296 ft | 366 kts | 89° |
| 2026-05-05 23:31 | 40.09313 | 43.25088 | 19838 ft | 363 kts | 88° |
| 2026-05-05 23:32 | 40.09495 | 43.28372 | 19380 ft | 361 kts | 89° |
| 2026-05-05 23:32 | 40.09672 | 43.31632 | 18930 ft | 359 kts | 88° |
| 2026-05-05 23:32 | 40.09848 | 43.34885 | 18484 ft | 357 kts | 88° |
| 2026-05-05 23:32 | 40.10023 | 43.38070 | 18042 ft | 354 kts | 88° |
| 2026-05-05 23:33 | 40.10199 | 43.41267 | 17556 ft | 352 kts | 89° |
| 2026-05-05 23:33 | 40.10374 | 43.44461 | 17101 ft | 349 kts | 89° |
| 2026-05-05 23:33 | 40.10546 | 43.47612 | 16671 ft | 346 kts | 89° |
| 2026-05-05 23:33 | 40.10715 | 43.50740 | 16245 ft | 343 kts | 89° |
| 2026-05-05 23:34 | 40.10878 | 43.53806 | 15842 ft | 341 kts | 89° |
| 2026-05-05 23:34 | 40.11042 | 43.56884 | 15432 ft | 338 kts | 89° |
| 2026-05-05 23:34 | 40.11206 | 43.59947 | 15025 ft | 335 kts | 89° |
| 2026-05-05 23:34 | 40.11368 | 43.62981 | 14621 ft | 333 kts | 89° |
| 2026-05-05 23:35 | 40.11657 | 43.65980 | 14248 ft | 334 kts | 79° |
| 2026-05-05 23:35 | 40.12467 | 43.68770 | 14037 ft | 330 kts | 66° |
| 2026-05-05 23:35 | 40.13516 | 43.71410 | 13898 ft | 321 kts | 66° |
| 2026-05-05 23:35 | 40.14522 | 43.73963 | 13773 ft | 311 kts | 66° |
| 2026-05-05 23:36 | 40.15365 | 43.76509 | 13638 ft | 298 kts | 78° |
| 2026-05-05 23:36 | 40.15713 | 43.79081 | 13470 ft | 286 kts | 91° |
| 2026-05-05 23:36 | 40.15658 | 43.81651 | 13168 ft | 281 kts | 97° |
| 2026-05-05 23:36 | 40.15543 | 43.84208 | 12837 ft | 280 kts | 96° |
| 2026-05-05 23:37 | 40.15432 | 43.86757 | 12492 ft | 280 kts | 96° |
| 2026-05-05 23:37 | 40.15322 | 43.89293 | 12159 ft | 279 kts | 96° |
| 2026-05-05 23:37 | 40.15215 | 43.91794 | 11831 ft | 278 kts | 96° |
| 2026-05-05 23:37 | 40.15106 | 43.94309 | 11493 ft | 277 kts | 95° |
| 2026-05-05 23:38 | 40.14996 | 43.96821 | 11163 ft | 276 kts | 95° |
| 2026-05-05 23:38 | 40.14886 | 43.99304 | 10951 ft | 270 kts | 95° |
| 2026-05-05 23:38 | 40.14778 | 44.01746 | 10522 ft | 273 kts | 95° |
| 2026-05-05 23:38 | 40.14667 | 44.04294 | 9800 ft | 288 kts | 94° |
| 2026-05-05 23:39 | 40.14608 | 44.06968 | 8986 ft | 301 kts | 91° |
| 2026-05-05 23:39 | 40.14585 | 44.09760 | 8152 ft | 313 kts | 91° |
| 2026-05-05 23:39 | 40.14577 | 44.12651 | 7309 ft | 324 kts | 90° |
| 2026-05-05 23:39 | 40.14569 | 44.15644 | 6451 ft | 333 kts | 90° |
| 2026-05-05 23:40 | 40.14566 | 44.18669 | 5574 ft | 340 kts | 89° |
| 2026-05-05 23:40 | 40.14585 | 44.21755 | 5000 ft | 337 kts | 89° |
| 2026-05-05 23:40 | 40.14615 | 44.24780 | 4562 ft | 329 kts | 89° |
| 2026-05-05 23:40 | 40.14644 | 44.27735 | 4107 ft | 322 kts | 89° |
| 2026-05-05 23:41 | 40.14669 | 44.30610 | 3879 ft | 308 kts | 89° |
| 2026-05-05 23:41 | 40.14688 | 44.33314 | 3888 ft | 287 kts | 89° |
| 2026-05-05 23:41 | 40.14704 | 44.35843 | 3888 ft | 267 kts | 89° |
| 2026-05-05 23:41 | 40.14717 | 44.38185 | 3888 ft | 249 kts | 89° |
| 2026-05-05 23:42 | 40.14728 | 44.40371 | 3888 ft | 232 kts | 89° |
| 2026-05-05 23:42 | 40.14739 | 44.42445 | 3888 ft | 226 kts | 89° |
| 2026-05-05 23:42 | 40.14642 | 44.44488 | 3879 ft | 225 kts | 108° |
| 2026-05-05 23:42 | 40.13726 | 44.46084 | 3887 ft | 223 kts | 151° |
| 2026-05-05 23:43 | 40.12241 | 44.46464 | 3889 ft | 221 kts | 194° |
| 2026-05-05 23:43 | 40.10973 | 44.45455 | 3892 ft | 218 kts | 237° |
| 2026-05-05 23:43 | 40.10579 | 44.43607 | 3899 ft | 215 kts | 280° |
| 2026-05-05 23:43 | 40.11088 | 44.41774 | 3903 ft | 217 kts | 298° |
| 2026-05-05 23:44 | 40.11851 | 44.40069 | 3896 ft | 218 kts | 302° |
| 2026-05-05 23:44 | 40.12642 | 44.38377 | 3896 ft | 218 kts | 301° |
| 2026-05-05 23:44 | 40.13391 | 44.36691 | 3892 ft | 217 kts | 299° |
| 2026-05-05 23:44 | 40.14116 | 44.34959 | 3888 ft | 217 kts | 298° |
| 2026-05-05 23:45 | 40.14811 | 44.33206 | 3887 ft | 217 kts | 297° |
| 2026-05-05 23:45 | 40.15537 | 44.31474 | 3883 ft | 217 kts | 308° |
| 2026-05-05 23:45 | 40.16705 | 44.30252 | 3883 ft | 218 kts | 336° |
| 2026-05-05 23:45 | 40.18190 | 44.29930 | 3884 ft | 220 kts | 6° |
| 2026-05-05 23:46 | 40.19609 | 44.30620 | 3889 ft | 221 kts | 37° |
| 2026-05-05 23:46 | 40.20683 | 44.32070 | 3892 ft | 223 kts | 49° |
| 2026-05-05 23:46 | 40.21681 | 44.33618 | 3893 ft | 222 kts | 49° |
| 2026-05-05 23:46 | 40.22671 | 44.35168 | 3896 ft | 221 kts | 49° |
| 2026-05-05 23:47 | 40.23659 | 44.36714 | 3897 ft | 221 kts | 49° |
| 2026-05-05 23:47 | 40.24645 | 44.38252 | 3901 ft | 220 kts | 50° |
| 2026-05-05 23:47 | 40.25322 | 44.40029 | 3899 ft | 221 kts | 79° |
| 2026-05-05 23:47 | 40.25319 | 44.41402 | 4003 ft | 0 kts | 333° |
| 2026-05-06 00:06 | 40.25319 | 44.41401 | 3998 ft | 0 kts | 334° |
| 2026-05-06 00:14 | 40.25320 | 44.41401 | 4001 ft | 0 kts | 334° |